sensor_id;sensor_type;location;lat;lon;timestamp;P1;durP1;ratioP1;P2;durP2;ratioP2
23617;SDS011;18207;32.078;34.818;2023-03-21T00:00:52;1.10;;;1.02;;
23617;SDS011;18207;32.078;34.818;2023-03-21T00:03:24;0.98;;;0.98;;
23617;SDS011;18207;32.078;34.818;2023-03-21T00:05:56;1.05;;;1.00;;
23617;SDS011;18207;32.078;34.818;2023-03-21T00:08:26;1.10;;;1.10;;
23617;SDS011;18207;32.078;34.818;2023-03-21T00:10:57;1.00;;;1.00;;
23617;SDS011;18207;32.078;34.818;2023-03-21T00:13:31;1.50;;;1.30;;
23617;SDS011;18207;32.078;34.818;2023-03-21T00:16:24;1.27;;;1.17;;
23617;SDS011;18207;32.078;34.818;2023-03-21T00:19:06;1.50;;;1.17;;
23617;SDS011;18207;32.078;34.818;2023-03-21T00:21:38;1.63;;;1.40;;
23617;SDS011;18207;32.078;34.818;2023-03-21T00:24:29;1.17;;;1.17;;
23617;SDS011;18207;32.078;34.818;2023-03-21T00:26:58;1.75;;;1.60;;
23617;SDS011;18207;32.078;34.818;2023-03-21T00:29:48;1.52;;;1.10;;
23617;SDS011;18207;32.078;34.818;2023-03-21T00:32:20;1.30;;;1.20;;
23617;SDS011;18207;32.078;34.818;2023-03-21T00:34:50;1.60;;;1.50;;
23617;SDS011;18207;32.078;34.818;2023-03-21T00:37:42;1.77;;;1.15;;
23617;SDS011;18207;32.078;34.818;2023-03-21T00:40:12;1.27;;;1.15;;
23617;SDS011;18207;32.078;34.818;2023-03-21T00:42:56;1.02;;;0.98;;
23617;SDS011;18207;32.078;34.818;2023-03-21T00:45:26;1.25;;;1.25;;
23617;SDS011;18207;32.078;34.818;2023-03-21T00:47:57;1.55;;;1.30;;
23617;SDS011;18207;32.078;34.818;2023-03-21T00:50:28;1.40;;;1.30;;
23617;SDS011;18207;32.078;34.818;2023-03-21T00:53:02;1.42;;;1.20;;
23617;SDS011;18207;32.078;34.818;2023-03-21T00:55:32;1.20;;;1.15;;
23617;SDS011;18207;32.078;34.818;2023-03-21T00:58:04;1.48;;;1.38;;
23617;SDS011;18207;32.078;34.818;2023-03-21T01:00:35;1.15;;;1.15;;
23617;SDS011;18207;32.078;34.818;2023-03-21T01:03:08;1.27;;;1.20;;
23617;SDS011;18207;32.078;34.818;2023-03-21T01:05:50;1.27;;;1.20;;
23617;SDS011;18207;32.078;34.818;2023-03-21T01:08:36;1.15;;;1.05;;
23617;SDS011;18207;32.078;34.818;2023-03-21T01:11:19;1.27;;;1.27;;
23617;SDS011;18207;32.078;34.818;2023-03-21T01:13:52;1.10;;;1.00;;
23617;SDS011;18207;32.078;34.818;2023-03-21T01:16:43;0.82;;;0.82;;
23617;SDS011;18207;32.078;34.818;2023-03-21T01:19:15;1.33;;;1.23;;
23617;SDS011;18207;32.078;34.818;2023-03-21T01:22:08;1.30;;;1.20;;
23617;SDS011;18207;32.078;34.818;2023-03-21T01:24:40;1.27;;;1.20;;
23617;SDS011;18207;32.078;34.818;2023-03-21T01:27:20;1.40;;;1.30;;
23617;SDS011;18207;32.078;34.818;2023-03-21T01:29:51;1.60;;;1.40;;
23617;SDS011;18207;32.078;34.818;2023-03-21T01:32:21;1.30;;;1.20;;
23617;SDS011;18207;32.078;34.818;2023-03-21T01:34:52;1.30;;;1.20;;
23617;SDS011;18207;32.078;34.818;2023-03-21T01:37:22;1.27;;;1.23;;
23617;SDS011;18207;32.078;34.818;2023-03-21T01:39:54;1.40;;;1.30;;
23617;SDS011;18207;32.078;34.818;2023-03-21T01:42:24;1.42;;;1.30;;
23617;SDS011;18207;32.078;34.818;2023-03-21T01:44:55;1.60;;;1.50;;
23617;SDS011;18207;32.078;34.818;2023-03-21T01:47:28;1.25;;;1.20;;
23617;SDS011;18207;32.078;34.818;2023-03-21T01:49:59;1.40;;;1.30;;
23617;SDS011;18207;32.078;34.818;2023-03-21T01:52:33;1.55;;;1.30;;
23617;SDS011;18207;32.078;34.818;2023-03-21T01:55:10;0.93;;;0.93;;
23617;SDS011;18207;32.078;34.818;2023-03-21T01:57:43;2.38;;;1.20;;
23617;SDS011;18207;32.078;34.818;2023-03-21T02:00:31;0.90;;;0.90;;
23617;SDS011;18207;32.078;34.818;2023-03-21T02:03:03;1.35;;;1.08;;
23617;SDS011;18207;32.078;34.818;2023-03-21T02:05:55;1.00;;;1.00;;
23617;SDS011;18207;32.078;34.818;2023-03-21T02:08:30;1.10;;;1.10;;
23617;SDS011;18207;32.078;34.818;2023-03-21T02:11:07;1.13;;;1.08;;
23617;SDS011;18207;32.078;34.818;2023-03-21T02:13:39;0.93;;;0.93;;
23617;SDS011;18207;32.078;34.818;2023-03-21T02:16:11;1.17;;;1.17;;
23617;SDS011;18207;32.078;34.818;2023-03-21T02:18:51;1.27;;;1.13;;
23617;SDS011;18207;32.078;34.818;2023-03-21T02:21:59;1.30;;;1.20;;
23617;SDS011;18207;32.078;34.818;2023-03-21T02:25:08;0.88;;;0.88;;
23617;SDS011;18207;32.078;34.818;2023-03-21T02:28:33;0.93;;;0.93;;
23617;SDS011;18207;32.078;34.818;2023-03-21T02:31:15;1.02;;;1.02;;
23617;SDS011;18207;32.078;34.818;2023-03-21T02:34:00;0.90;;;0.90;;
23617;SDS011;18207;32.078;34.818;2023-03-21T02:37:05;0.90;;;0.90;;
23617;SDS011;18207;32.078;34.818;2023-03-21T02:40:00;1.00;;;1.00;;
23617;SDS011;18207;32.078;34.818;2023-03-21T02:42:43;1.25;;;1.25;;
23617;SDS011;18207;32.078;34.818;2023-03-21T02:45:29;1.10;;;1.00;;
23617;SDS011;18207;32.078;34.818;2023-03-21T02:48:08;0.85;;;0.82;;
23617;SDS011;18207;32.078;34.818;2023-03-21T02:50:55;0.90;;;0.90;;
23617;SDS011;18207;32.078;34.818;2023-03-21T02:53:32;1.10;;;1.00;;
23617;SDS011;18207;32.078;34.818;2023-03-21T02:56:08;1.00;;;1.00;;
23617;SDS011;18207;32.078;34.818;2023-03-21T02:58:40;1.45;;;1.10;;
23617;SDS011;18207;32.078;34.818;2023-03-21T03:01:12;1.05;;;1.00;;
23617;SDS011;18207;32.078;34.818;2023-03-21T03:03:42;0.93;;;0.93;;
23617;SDS011;18207;32.078;34.818;2023-03-21T03:06:14;1.00;;;0.90;;
23617;SDS011;18207;32.078;34.818;2023-03-21T03:11:54;0.90;;;0.90;;
23617;SDS011;18207;32.078;34.818;2023-03-21T03:14:43;1.00;;;1.00;;
23617;SDS011;18207;32.078;34.818;2023-03-21T03:17:34;1.33;;;0.90;;
23617;SDS011;18207;32.078;34.818;2023-03-21T03:20:18;0.93;;;0.70;;
23617;SDS011;18207;32.078;34.818;2023-03-21T03:23:16;0.77;;;0.77;;
23617;SDS011;18207;32.078;34.818;2023-03-21T03:25:59;1.15;;;1.05;;
23617;SDS011;18207;32.078;34.818;2023-03-21T03:28:38;0.77;;;0.77;;
23617;SDS011;18207;32.078;34.818;2023-03-21T03:31:17;1.13;;;1.10;;
23617;SDS011;18207;32.078;34.818;2023-03-21T03:33:55;1.08;;;1.00;;
23617;SDS011;18207;32.078;34.818;2023-03-21T03:36:31;0.80;;;0.80;;
23617;SDS011;18207;32.078;34.818;2023-03-21T03:39:09;1.17;;;1.08;;
23617;SDS011;18207;32.078;34.818;2023-03-21T03:41:45;0.65;;;0.65;;
23617;SDS011;18207;32.078;34.818;2023-03-21T03:44:40;1.10;;;0.95;;
23617;SDS011;18207;32.078;34.818;2023-03-21T03:47:11;1.17;;;1.08;;
23617;SDS011;18207;32.078;34.818;2023-03-21T03:50:02;0.75;;;0.65;;
23617;SDS011;18207;32.078;34.818;2023-03-21T03:52:41;0.93;;;0.93;;
23617;SDS011;18207;32.078;34.818;2023-03-21T03:55:23;0.60;;;0.60;;
23617;SDS011;18207;32.078;34.818;2023-03-21T03:58:02;1.00;;;1.00;;
23617;SDS011;18207;32.078;34.818;2023-03-21T04:00:47;0.80;;;0.80;;
23617;SDS011;18207;32.078;34.818;2023-03-21T04:03:18;1.23;;;1.13;;
23617;SDS011;18207;32.078;34.818;2023-03-21T04:05:48;2.10;;;0.90;;
23617;SDS011;18207;32.078;34.818;2023-03-21T04:08:19;1.63;;;0.90;;
23617;SDS011;18207;32.078;34.818;2023-03-21T04:10:50;0.75;;;0.75;;
23617;SDS011;18207;32.078;34.818;2023-03-21T04:13:23;1.27;;;1.15;;
23617;SDS011;18207;32.078;34.818;2023-03-21T04:15:53;1.23;;;0.90;;
23617;SDS011;18207;32.078;34.818;2023-03-21T04:18:24;0.85;;;0.85;;
23617;SDS011;18207;32.078;34.818;2023-03-21T04:20:55;1.08;;;1.00;;
23617;SDS011;18207;32.078;34.818;2023-03-21T04:23:25;0.50;;;0.50;;
23617;SDS011;18207;32.078;34.818;2023-03-21T04:25:57;0.75;;;0.75;;
23617;SDS011;18207;32.078;34.818;2023-03-21T04:28:28;1.00;;;0.85;;
23617;SDS011;18207;32.078;34.818;2023-03-21T04:30:59;0.93;;;0.90;;
23617;SDS011;18207;32.078;34.818;2023-03-21T04:33:44;0.73;;;0.73;;
23617;SDS011;18207;32.078;34.818;2023-03-21T04:36:15;1.10;;;1.10;;
23617;SDS011;18207;32.078;34.818;2023-03-21T04:38:54;1.10;;;1.02;;
23617;SDS011;18207;32.078;34.818;2023-03-21T04:41:27;1.00;;;1.00;;
23617;SDS011;18207;32.078;34.818;2023-03-21T04:43:59;0.88;;;0.88;;
23617;SDS011;18207;32.078;34.818;2023-03-21T04:46:30;1.00;;;0.90;;
23617;SDS011;18207;32.078;34.818;2023-03-21T04:49:00;0.77;;;0.77;;
23617;SDS011;18207;32.078;34.818;2023-03-21T04:51:32;1.00;;;1.00;;
23617;SDS011;18207;32.078;34.818;2023-03-21T04:54:03;0.85;;;0.85;;
23617;SDS011;18207;32.078;34.818;2023-03-21T04:56:32;1.48;;;1.20;;
23617;SDS011;18207;32.078;34.818;2023-03-21T04:59:05;1.27;;;1.10;;
23617;SDS011;18207;32.078;34.818;2023-03-21T05:01:39;1.13;;;0.95;;
23617;SDS011;18207;32.078;34.818;2023-03-21T05:04:10;0.80;;;0.80;;
23617;SDS011;18207;32.078;34.818;2023-03-21T05:06:42;1.10;;;0.88;;
23617;SDS011;18207;32.078;34.818;2023-03-21T05:09:13;0.88;;;0.88;;
23617;SDS011;18207;32.078;34.818;2023-03-21T05:11:43;0.80;;;0.77;;
23617;SDS011;18207;32.078;34.818;2023-03-21T05:14:16;1.10;;;1.00;;
23617;SDS011;18207;32.078;34.818;2023-03-21T05:16:49;0.75;;;0.75;;
23617;SDS011;18207;32.078;34.818;2023-03-21T05:19:23;1.10;;;1.00;;
23617;SDS011;18207;32.078;34.818;2023-03-21T05:22:02;0.73;;;0.73;;
23617;SDS011;18207;32.078;34.818;2023-03-21T05:24:34;0.63;;;0.63;;
23617;SDS011;18207;32.078;34.818;2023-03-21T05:27:07;1.20;;;1.10;;
23617;SDS011;18207;32.078;34.818;2023-03-21T05:29:41;1.00;;;0.90;;
23617;SDS011;18207;32.078;34.818;2023-03-21T05:32:12;1.05;;;0.90;;
23617;SDS011;18207;32.078;34.818;2023-03-21T05:34:42;0.82;;;0.82;;
23617;SDS011;18207;32.078;34.818;2023-03-21T05:37:12;1.20;;;1.10;;
23617;SDS011;18207;32.078;34.818;2023-03-21T05:39:42;1.17;;;1.08;;
23617;SDS011;18207;32.078;34.818;2023-03-21T05:42:12;1.50;;;1.00;;
23617;SDS011;18207;32.078;34.818;2023-03-21T05:44:46;0.70;;;0.70;;
23617;SDS011;18207;32.078;34.818;2023-03-21T05:47:16;0.75;;;0.73;;
23617;SDS011;18207;32.078;34.818;2023-03-21T05:49:47;0.80;;;0.80;;
23617;SDS011;18207;32.078;34.818;2023-03-21T05:52:18;1.02;;;0.95;;
23617;SDS011;18207;32.078;34.818;2023-03-21T05:54:48;1.00;;;1.00;;
23617;SDS011;18207;32.078;34.818;2023-03-21T05:57:19;0.90;;;0.90;;
23617;SDS011;18207;32.078;34.818;2023-03-21T05:59:52;1.20;;;1.10;;
23617;SDS011;18207;32.078;34.818;2023-03-21T06:02:26;1.15;;;0.73;;
23617;SDS011;18207;32.078;34.818;2023-03-21T06:04:56;1.20;;;1.10;;
23617;SDS011;18207;32.078;34.818;2023-03-21T06:07:27;0.85;;;0.85;;
23617;SDS011;18207;32.078;34.818;2023-03-21T06:09:57;1.20;;;1.10;;
23617;SDS011;18207;32.078;34.818;2023-03-21T06:12:28;0.80;;;0.80;;
23617;SDS011;18207;32.078;34.818;2023-03-21T06:15:01;1.00;;;1.00;;
23617;SDS011;18207;32.078;34.818;2023-03-21T06:17:31;1.10;;;1.10;;
23617;SDS011;18207;32.078;34.818;2023-03-21T06:20:03;1.17;;;1.08;;
23617;SDS011;18207;32.078;34.818;2023-03-21T06:22:35;0.90;;;0.90;;
23617;SDS011;18207;32.078;34.818;2023-03-21T06:25:05;1.48;;;0.82;;
23617;SDS011;18207;32.078;34.818;2023-03-21T06:27:37;1.02;;;1.00;;
23617;SDS011;18207;32.078;34.818;2023-03-21T06:30:11;0.85;;;0.85;;
23617;SDS011;18207;32.078;34.818;2023-03-21T06:32:43;0.90;;;0.90;;
23617;SDS011;18207;32.078;34.818;2023-03-21T06:35:13;1.10;;;1.10;;
23617;SDS011;18207;32.078;34.818;2023-03-21T06:37:43;0.98;;;0.98;;
23617;SDS011;18207;32.078;34.818;2023-03-21T06:40:15;1.17;;;1.00;;
23617;SDS011;18207;32.078;34.818;2023-03-21T06:42:45;1.00;;;0.93;;
23617;SDS011;18207;32.078;34.818;2023-03-21T06:45:17;1.25;;;1.15;;
23617;SDS011;18207;32.078;34.818;2023-03-21T06:47:47;1.15;;;1.08;;
23617;SDS011;18207;32.078;34.818;2023-03-21T06:50:17;0.88;;;0.88;;
23617;SDS011;18207;32.078;34.818;2023-03-21T06:52:48;1.10;;;1.10;;
23617;SDS011;18207;32.078;34.818;2023-03-21T06:55:18;0.70;;;0.70;;
23617;SDS011;18207;32.078;34.818;2023-03-21T06:57:52;0.85;;;0.85;;
23617;SDS011;18207;32.078;34.818;2023-03-21T07:00:26;1.15;;;1.00;;
23617;SDS011;18207;32.078;34.818;2023-03-21T07:02:57;0.98;;;0.98;;
23617;SDS011;18207;32.078;34.818;2023-03-21T07:05:27;2.38;;;1.20;;
23617;SDS011;18207;32.078;34.818;2023-03-21T07:07:58;0.80;;;0.80;;
23617;SDS011;18207;32.078;34.818;2023-03-21T07:10:28;0.70;;;0.70;;
23617;SDS011;18207;32.078;34.818;2023-03-21T07:12:59;0.80;;;0.80;;
23617;SDS011;18207;32.078;34.818;2023-03-21T07:15:32;0.63;;;0.63;;
23617;SDS011;18207;32.078;34.818;2023-03-21T07:18:04;0.65;;;0.65;;
23617;SDS011;18207;32.078;34.818;2023-03-21T07:20:35;0.60;;;0.60;;
23617;SDS011;18207;32.078;34.818;2023-03-21T07:23:06;0.50;;;0.50;;
23617;SDS011;18207;32.078;34.818;2023-03-21T07:25:36;0.93;;;0.57;;
23617;SDS011;18207;32.078;34.818;2023-03-21T07:28:07;0.80;;;0.80;;
23617;SDS011;18207;32.078;34.818;2023-03-21T07:30:41;0.40;;;0.40;;
23617;SDS011;18207;32.078;34.818;2023-03-21T07:33:12;0.73;;;0.50;;
23617;SDS011;18207;32.078;34.818;2023-03-21T07:35:42;0.30;;;0.30;;
23617;SDS011;18207;32.078;34.818;2023-03-21T07:38:13;0.30;;;0.30;;
23617;SDS011;18207;32.078;34.818;2023-03-21T07:40:44;0.50;;;0.50;;
23617;SDS011;18207;32.078;34.818;2023-03-21T07:43:16;0.28;;;0.28;;
23617;SDS011;18207;32.078;34.818;2023-03-21T07:45:50;0.20;;;0.20;;
23617;SDS011;18207;32.078;34.818;2023-03-21T07:48:25;0.20;;;0.20;;
23617;SDS011;18207;32.078;34.818;2023-03-21T07:50:55;0.30;;;0.30;;
23617;SDS011;18207;32.078;34.818;2023-03-21T07:53:25;0.40;;;0.40;;
23617;SDS011;18207;32.078;34.818;2023-03-21T07:55:56;0.45;;;0.30;;
23617;SDS011;18207;32.078;34.818;2023-03-21T07:58:26;0.30;;;0.30;;
23617;SDS011;18207;32.078;34.818;2023-03-21T08:00:59;0.47;;;0.47;;
23617;SDS011;18207;32.078;34.818;2023-03-21T08:03:29;0.40;;;0.20;;
23617;SDS011;18207;32.078;34.818;2023-03-21T08:06:00;0.10;;;0.10;;
23617;SDS011;18207;32.078;34.818;2023-03-21T08:08:31;0.47;;;0.30;;
23617;SDS011;18207;32.078;34.818;2023-03-21T08:11:02;0.30;;;0.28;;
23617;SDS011;18207;32.078;34.818;2023-03-21T08:13:33;0.38;;;0.38;;
23617;SDS011;18207;32.078;34.818;2023-03-21T08:16:06;0.68;;;0.30;;
23617;SDS011;18207;32.078;34.818;2023-03-21T08:18:37;0.57;;;0.50;;
23617;SDS011;18207;32.078;34.818;2023-03-21T08:21:08;0.38;;;0.38;;
23617;SDS011;18207;32.078;34.818;2023-03-21T08:23:39;1.30;;;0.57;;
23617;SDS011;18207;32.078;34.818;2023-03-21T08:26:13;0.60;;;0.38;;
23617;SDS011;18207;32.078;34.818;2023-03-21T08:28:44;0.30;;;0.30;;
23617;SDS011;18207;32.078;34.818;2023-03-21T08:31:17;0.20;;;0.20;;
23617;SDS011;18207;32.078;34.818;2023-03-21T08:33:49;0.52;;;0.30;;
23617;SDS011;18207;32.078;34.818;2023-03-21T08:36:20;0.20;;;0.20;;
23617;SDS011;18207;32.078;34.818;2023-03-21T08:38:52;0.35;;;0.32;;
23617;SDS011;18207;32.078;34.818;2023-03-21T08:41:30;0.70;;;0.50;;
23617;SDS011;18207;32.078;34.818;2023-03-21T08:44:01;0.20;;;0.20;;
23617;SDS011;18207;32.078;34.818;2023-03-21T08:46:35;0.30;;;0.30;;
23617;SDS011;18207;32.078;34.818;2023-03-21T08:49:05;0.52;;;0.32;;
23617;SDS011;18207;32.078;34.818;2023-03-21T08:51:36;0.30;;;0.30;;
23617;SDS011;18207;32.078;34.818;2023-03-21T08:54:07;0.95;;;0.30;;
23617;SDS011;18207;32.078;34.818;2023-03-21T08:56:48;0.57;;;0.52;;
23617;SDS011;18207;32.078;34.818;2023-03-21T08:59:18;0.98;;;0.47;;
23617;SDS011;18207;32.078;34.818;2023-03-21T09:01:51;1.05;;;0.50;;
23617;SDS011;18207;32.078;34.818;2023-03-21T09:04:22;0.52;;;0.45;;
23617;SDS011;18207;32.078;34.818;2023-03-21T09:06:53;0.93;;;0.30;;
23617;SDS011;18207;32.078;34.818;2023-03-21T09:09:23;0.40;;;0.40;;
23617;SDS011;18207;32.078;34.818;2023-03-21T09:11:53;0.50;;;0.50;;
23617;SDS011;18207;32.078;34.818;2023-03-21T09:14:24;1.23;;;0.47;;
23617;SDS011;18207;32.078;34.818;2023-03-21T09:16:57;0.98;;;0.50;;
23617;SDS011;18207;32.078;34.818;2023-03-21T09:19:27;0.60;;;0.60;;
23617;SDS011;18207;32.078;34.818;2023-03-21T09:21:57;0.43;;;0.43;;
23617;SDS011;18207;32.078;34.818;2023-03-21T09:24:27;0.50;;;0.50;;
23617;SDS011;18207;32.078;34.818;2023-03-21T09:26:57;0.65;;;0.38;;
23617;SDS011;18207;32.078;34.818;2023-03-21T09:29:27;1.17;;;0.50;;
23617;SDS011;18207;32.078;34.818;2023-03-21T09:32:00;0.63;;;0.50;;
23617;SDS011;18207;32.078;34.818;2023-03-21T09:34:32;0.63;;;0.30;;
23617;SDS011;18207;32.078;34.818;2023-03-21T09:37:07;0.25;;;0.17;;
23617;SDS011;18207;32.078;34.818;2023-03-21T09:39:39;0.43;;;0.20;;
23617;SDS011;18207;32.078;34.818;2023-03-21T09:42:17;0.57;;;0.30;;
23617;SDS011;18207;32.078;34.818;2023-03-21T09:45:00;0.10;;;0.10;;
23617;SDS011;18207;32.078;34.818;2023-03-21T09:47:44;0.10;;;0.10;;
23617;SDS011;18207;32.078;34.818;2023-03-21T09:50:20;0.20;;;0.17;;
23617;SDS011;18207;32.078;34.818;2023-03-21T09:52:58;0.50;;;0.30;;
23617;SDS011;18207;32.078;34.818;2023-03-21T09:55:33;0.47;;;0.20;;
23617;SDS011;18207;32.078;34.818;2023-03-21T09:58:07;0.20;;;0.20;;
23617;SDS011;18207;32.078;34.818;2023-03-21T10:00:56;0.80;;;0.40;;
23617;SDS011;18207;32.078;34.818;2023-03-21T10:03:37;0.63;;;0.30;;
23617;SDS011;18207;32.078;34.818;2023-03-21T10:06:10;0.38;;;0.38;;
23617;SDS011;18207;32.078;34.818;2023-03-21T10:08:45;0.30;;;0.30;;
23617;SDS011;18207;32.078;34.818;2023-03-21T10:11:19;0.20;;;0.20;;
23617;SDS011;18207;32.078;34.818;2023-03-21T10:13:56;0.77;;;0.45;;
23617;SDS011;18207;32.078;34.818;2023-03-21T10:16:32;0.30;;;0.30;;
23617;SDS011;18207;32.078;34.818;2023-03-21T10:19:12;0.20;;;0.20;;
23617;SDS011;18207;32.078;34.818;2023-03-21T10:21:45;0.43;;;0.20;;
23617;SDS011;18207;32.078;34.818;2023-03-21T10:24:27;0.30;;;0.30;;
23617;SDS011;18207;32.078;34.818;2023-03-21T10:27:01;0.30;;;0.22;;
23617;SDS011;18207;32.078;34.818;2023-03-21T10:29:34;0.65;;;0.30;;
23617;SDS011;18207;32.078;34.818;2023-03-21T10:32:12;2.30;;;0.30;;
23617;SDS011;18207;32.078;34.818;2023-03-21T10:34:49;0.32;;;0.10;;
23617;SDS011;18207;32.078;34.818;2023-03-21T10:37:27;0.20;;;0.20;;
23617;SDS011;18207;32.078;34.818;2023-03-21T10:39:59;0.20;;;0.20;;
23617;SDS011;18207;32.078;34.818;2023-03-21T10:42:32;0.25;;;0.22;;
23617;SDS011;18207;32.078;34.818;2023-03-21T10:45:03;0.20;;;0.20;;
23617;SDS011;18207;32.078;34.818;2023-03-21T10:47:46;0.32;;;0.25;;
23617;SDS011;18207;32.078;34.818;2023-03-21T10:50:21;0.43;;;0.30;;
23617;SDS011;18207;32.078;34.818;2023-03-21T10:52:58;0.50;;;0.50;;
23617;SDS011;18207;32.078;34.818;2023-03-21T10:55:30;0.55;;;0.25;;
23617;SDS011;18207;32.078;34.818;2023-03-21T10:58:04;0.65;;;0.40;;
23617;SDS011;18207;32.078;34.818;2023-03-21T11:00:38;0.55;;;0.30;;
23617;SDS011;18207;32.078;34.818;2023-03-21T11:03:16;0.17;;;0.17;;
23617;SDS011;18207;32.078;34.818;2023-03-21T11:05:58;0.30;;;0.30;;
23617;SDS011;18207;32.078;34.818;2023-03-21T11:08:36;0.32;;;0.20;;
23617;SDS011;18207;32.078;34.818;2023-03-21T11:11:11;0.40;;;0.30;;
23617;SDS011;18207;32.078;34.818;2023-03-21T11:13:56;0.45;;;0.30;;
23617;SDS011;18207;32.078;34.818;2023-03-21T11:16:35;0.20;;;0.20;;
23617;SDS011;18207;32.078;34.818;2023-03-21T11:19:13;0.47;;;0.30;;
23617;SDS011;18207;32.078;34.818;2023-03-21T11:21:48;0.35;;;0.35;;
23617;SDS011;18207;32.078;34.818;2023-03-21T11:24:18;0.30;;;0.25;;
23617;SDS011;18207;32.078;34.818;2023-03-21T11:26:49;0.40;;;0.40;;
23617;SDS011;18207;32.078;34.818;2023-03-21T11:29:22;0.55;;;0.20;;
23617;SDS011;18207;32.078;34.818;2023-03-21T11:31:59;0.30;;;0.30;;
23617;SDS011;18207;32.078;34.818;2023-03-21T11:34:40;0.20;;;0.20;;
23617;SDS011;18207;32.078;34.818;2023-03-21T11:37:30;0.32;;;0.20;;
23617;SDS011;18207;32.078;34.818;2023-03-21T11:40:12;0.65;;;0.40;;
23617;SDS011;18207;32.078;34.818;2023-03-21T11:42:51;0.35;;;0.35;;
23617;SDS011;18207;32.078;34.818;2023-03-21T11:45:24;1.20;;;0.40;;
23617;SDS011;18207;32.078;34.818;2023-03-21T11:47:57;0.22;;;0.20;;
23617;SDS011;18207;32.078;34.818;2023-03-21T11:50:30;0.50;;;0.30;;
23617;SDS011;18207;32.078;34.818;2023-03-21T11:53:09;0.45;;;0.20;;
23617;SDS011;18207;32.078;34.818;2023-03-21T11:56:03;0.20;;;0.20;;
23617;SDS011;18207;32.078;34.818;2023-03-21T11:58:59;0.60;;;0.20;;
23617;SDS011;18207;32.078;34.818;2023-03-21T12:02:10;1.02;;;0.30;;
23617;SDS011;18207;32.078;34.818;2023-03-21T12:05:22;0.20;;;0.20;;
23617;SDS011;18207;32.078;34.818;2023-03-21T12:08:01;0.20;;;0.20;;
23617;SDS011;18207;32.078;34.818;2023-03-21T12:10:54;0.35;;;0.10;;
23617;SDS011;18207;32.078;34.818;2023-03-21T12:13:42;0.10;;;0.10;;
23617;SDS011;18207;32.078;34.818;2023-03-21T12:16:38;0.17;;;0.17;;
23617;SDS011;18207;32.078;34.818;2023-03-21T12:19:24;0.22;;;0.22;;
23617;SDS011;18207;32.078;34.818;2023-03-21T12:22:24;0.30;;;0.20;;
23617;SDS011;18207;32.078;34.818;2023-03-21T12:25:09;0.10;;;0.10;;
23617;SDS011;18207;32.078;34.818;2023-03-21T12:27:48;0.43;;;0.10;;
23617;SDS011;18207;32.078;34.818;2023-03-21T12:30:37;0.05;;;0.05;;
23617;SDS011;18207;32.078;34.818;2023-03-21T12:33:20;0.13;;;0.10;;
23617;SDS011;18207;32.078;34.818;2023-03-21T12:36:12;0.38;;;0.13;;
23617;SDS011;18207;32.078;34.818;2023-03-21T12:39:13;0.20;;;0.20;;
23617;SDS011;18207;32.078;34.818;2023-03-21T12:45:13;0.20;;;0.10;;
23617;SDS011;18207;32.078;34.818;2023-03-21T12:47:52;0.10;;;0.10;;
23617;SDS011;18207;32.078;34.818;2023-03-21T12:50:29;0.17;;;0.17;;
23617;SDS011;18207;32.078;34.818;2023-03-21T12:53:06;0.15;;;0.15;;
23617;SDS011;18207;32.078;34.818;2023-03-21T12:55:58;0.17;;;0.17;;
23617;SDS011;18207;32.078;34.818;2023-03-21T12:58:41;0.10;;;0.10;;
23617;SDS011;18207;32.078;34.818;2023-03-21T13:01:20;0.13;;;0.13;;
23617;SDS011;18207;32.078;34.818;2023-03-21T13:03:56;0.73;;;0.10;;
23617;SDS011;18207;32.078;34.818;2023-03-21T13:06:59;0.00;;;0.00;;
23617;SDS011;18207;32.078;34.818;2023-03-21T13:09:35;0.13;;;0.13;;
23617;SDS011;18207;32.078;34.818;2023-03-21T13:12:15;0.03;;;0.03;;
23617;SDS011;18207;32.078;34.818;2023-03-21T13:15:12;0.20;;;0.20;;
23617;SDS011;18207;32.078;34.818;2023-03-21T13:18:11;0.20;;;0.20;;
23617;SDS011;18207;32.078;34.818;2023-03-21T13:21:00;0.10;;;0.10;;
23617;SDS011;18207;32.078;34.818;2023-03-21T13:23:38;0.10;;;0.10;;
23617;SDS011;18207;32.078;34.818;2023-03-21T13:26:09;0.13;;;0.13;;
23617;SDS011;18207;32.078;34.818;2023-03-21T13:28:40;0.17;;;0.17;;
23617;SDS011;18207;32.078;34.818;2023-03-21T13:31:14;0.00;;;0.00;;
23617;SDS011;18207;32.078;34.818;2023-03-21T13:33:51;0.20;;;0.20;;
23617;SDS011;18207;32.078;34.818;2023-03-21T13:36:27;0.03;;;0.03;;
23617;SDS011;18207;32.078;34.818;2023-03-21T13:39:04;0.10;;;0.10;;
23617;SDS011;18207;32.078;34.818;2023-03-21T13:41:45;0.10;;;0.10;;
23617;SDS011;18207;32.078;34.818;2023-03-21T13:44:22;0.10;;;0.10;;
23617;SDS011;18207;32.078;34.818;2023-03-21T13:47:04;0.10;;;0.10;;
23617;SDS011;18207;32.078;34.818;2023-03-21T13:53:19;0.00;;;0.00;;
23617;SDS011;18207;32.078;34.818;2023-03-21T13:56:01;0.10;;;0.10;;
23617;SDS011;18207;32.078;34.818;2023-03-21T13:58:54;0.20;;;0.10;;
23617;SDS011;18207;32.078;34.818;2023-03-21T14:01:36;0.00;;;0.00;;
23617;SDS011;18207;32.078;34.818;2023-03-21T14:04:10;0.10;;;0.10;;
23617;SDS011;18207;32.078;34.818;2023-03-21T14:06:48;0.10;;;0.10;;
23617;SDS011;18207;32.078;34.818;2023-03-21T14:09:26;0.52;;;0.13;;
23617;SDS011;18207;32.078;34.818;2023-03-21T14:12:05;0.43;;;0.20;;
23617;SDS011;18207;32.078;34.818;2023-03-21T14:14:43;0.10;;;0.10;;
23617;SDS011;18207;32.078;34.818;2023-03-21T14:17:21;0.10;;;0.10;;
23617;SDS011;18207;32.078;34.818;2023-03-21T14:19:54;0.35;;;0.35;;
23617;SDS011;18207;32.078;34.818;2023-03-21T14:22:41;0.10;;;0.10;;
23617;SDS011;18207;32.078;34.818;2023-03-21T14:25:15;0.30;;;0.20;;
23617;SDS011;18207;32.078;34.818;2023-03-21T14:28:13;0.10;;;0.10;;
23617;SDS011;18207;32.078;34.818;2023-03-21T14:30:49;0.05;;;0.05;;
23617;SDS011;18207;32.078;34.818;2023-03-21T14:33:26;0.20;;;0.20;;
23617;SDS011;18207;32.078;34.818;2023-03-21T14:36:05;0.20;;;0.20;;
23617;SDS011;18207;32.078;34.818;2023-03-21T14:38:45;0.10;;;0.10;;
23617;SDS011;18207;32.078;34.818;2023-03-21T14:41:26;0.10;;;0.10;;
23617;SDS011;18207;32.078;34.818;2023-03-21T14:44:07;0.10;;;0.10;;
23617;SDS011;18207;32.078;34.818;2023-03-21T14:46:48;0.50;;;0.30;;
23617;SDS011;18207;32.078;34.818;2023-03-21T14:49:24;0.77;;;0.43;;
23617;SDS011;18207;32.078;34.818;2023-03-21T14:51:56;0.30;;;0.30;;
23617;SDS011;18207;32.078;34.818;2023-03-21T14:54:34;0.15;;;0.15;;
23617;SDS011;18207;32.078;34.818;2023-03-21T14:57:10;0.10;;;0.10;;
23617;SDS011;18207;32.078;34.818;2023-03-21T14:59:47;0.10;;;0.10;;
23617;SDS011;18207;32.078;34.818;2023-03-21T15:02:22;0.15;;;0.15;;
23617;SDS011;18207;32.078;34.818;2023-03-21T15:04:56;0.30;;;0.30;;
23617;SDS011;18207;32.078;34.818;2023-03-21T15:07:37;0.30;;;0.30;;
23617;SDS011;18207;32.078;34.818;2023-03-21T15:10:13;0.10;;;0.10;;
23617;SDS011;18207;32.078;34.818;2023-03-21T15:12:48;0.50;;;0.30;;
23617;SDS011;18207;32.078;34.818;2023-03-21T15:15:23;0.10;;;0.10;;
23617;SDS011;18207;32.078;34.818;2023-03-21T15:17:57;0.10;;;0.10;;
23617;SDS011;18207;32.078;34.818;2023-03-21T15:20:33;0.20;;;0.20;;
23617;SDS011;18207;32.078;34.818;2023-03-21T15:23:07;0.20;;;0.20;;
23617;SDS011;18207;32.078;34.818;2023-03-21T15:25:45;0.20;;;0.20;;
23617;SDS011;18207;32.078;34.818;2023-03-21T15:28:16;0.45;;;0.25;;
23617;SDS011;18207;32.078;34.818;2023-03-21T15:30:47;0.20;;;0.20;;
23617;SDS011;18207;32.078;34.818;2023-03-21T15:33:23;0.52;;;0.20;;
23617;SDS011;18207;32.078;34.818;2023-03-21T15:35:55;0.43;;;0.30;;
23617;SDS011;18207;32.078;34.818;2023-03-21T15:38:31;0.30;;;0.30;;